To NAV CANADA Home Page Login to a new session Search on AWWS site Feedback and Comments Disclaimer Vers la page française équivalente Tips FAQ What's new on the site To the Forecasts and Observations / NOTAM section To "File a Flight Plan" website Publications and other links Update of the User's profile FIC Telephone Numbers My Weather Data Folder Route Weather Data Regional Weather Data Local Weather Data To the Forecasts and Observations / NOTAM section
Request Generated 09/03/2015 at 23:20:26 UTC . Weather information available at that time is displayed.

METAR/TAF

ROBERVAL/QC    

METAR CYRJ 032300Z 00000KT 40SM FEW080 FEW220 15/13 A3003 RMK AC1CI1
AC TR SLP173 DENSITY ALT 600FT=
METAR CYRJ 032200Z VRB02KT 40SM FEW220 20/10 A3002 RMK CI1 SLP169
DENSITY ALT 1100FT=
METAR CYRJ 032100Z 32003KT 300V040 40SM FEW220 20/08 A3003 RMK CI1 CI
TR SLP170 DENSITY ALT 1100FT=

TAF CYRJ 031938Z 0320/0402 34005KT P6SM FEW025
RMK NXT FCST WILL BE ISSUED AT 041145Z=
Your time UTC time
Weather data provided by Environment Canada and NAV CANADA